Decoded Metar for KBIV (HOLLAND in MI, USA) (IATA:BIV) | Meteo·Mobile Aviation Weather
aviador You're here:

KBIV Decoded Metar

HOLLAND in MI, USA
Report Time2019-04-23 15:53:00
UTC Time2019-04-23 16:40:53
Flight Rules ifr IFR
Wind320° at 16 Gusting to 28 kt
W.Decomp.*RWY 26: 7.0 kt HW 14.4 kt RCW
Visibility9999 m
Phenomena:N/A
Clouds:Overcast 007 Hf
Expected CloudBase > 1,200 ft AGL from Temp-Dew spread
Ceiling700 ft
Temp06°C (ISA -8)
Dew Point03°C (81% RH)
AAT-1.3°C
QNH1015 hPa
Density Alt-200 ft
Elevation682 ft
Report Wrong Elevation
Raw Report
KBIV 231553Z AUTO 32016G28KT 10SM OVC007 06/03 A2998 RMK AO2 PK
WND 31028/1545 SLPNO T00560033=

Extra information for KBIV:More info

Metar Taf Metar & Taf Last 4 Metars F.Rules Stats Wind Profile Meteogram Temp Stats Airport Information Weather charts Add Link Nearby VenuesMetar ALERT Operation Metar Decoded Social comments

AIRNAV info for KBIV